Angle Inlet, Minnesota
Current Conditions -  °F | °C
As of 5:14 AM on Friday 28 Nov 2014 (Local Time) from KFGN Reporting Station
Clear Clear  
Wind Chill: -8°   Ceiling: Unl
Heat Index:   Visibility: 10mi
Dew Point: -2°   Wind: 5mph
Humidity: 85%   Direction: 100°E
Pressure: 30.05"   Gusts: NA
Location:  49.35°N, 95.08°W
Report Text: KFGN 281114Z AUTO 10004KT 10SM CLR M17/M19 A3005 RMK AO2
Loading
Personal Weather Stations






























Interactive Weather Map New forecast layout! Learn more

10-Day Weather Forecast

Advertisements
Track Severe Weather on mobile